Farley, Missouri
Current Conditions -  °F | °C
As of 4:53 AM on Friday 19 Dec 2014 (Local Time) from KMCI Reporting Station
Haze Haze  
Wind Chill: 30°   Ceiling: 600
Heat Index: 30°   Visibility: 3mi
Dew Point: 29°   Wind: 3mph
Humidity: 96%   Direction: 310°NW
Pressure: 30.24"   Gusts: NA
Location:  39.28°N, 94.83°W
Report Text: KMCI 191053Z 31003KT 3SM BR OVC006 M01/M02 A3024 RMK AO2 SLP247 T10111017 $
Loading
Personal Weather Stations






























Interactive Weather Map New forecast layout! Learn more

10-Day Weather Forecast

Advertisements
Track Severe Weather on mobile